sensor_id;sensor_type;location;lat;lon;timestamp;P1;durP1;ratioP1;P2;durP2;ratioP2
3911;SDS011;1971;51.778;10.330;2022-09-14T00:02:20;13.10;;;3.83;;
3911;SDS011;1971;51.778;10.330;2022-09-14T00:04:50;3.33;;;2.63;;
3911;SDS011;1971;51.778;10.330;2022-09-14T00:07:20;4.60;;;3.50;;
3911;SDS011;1971;51.778;10.330;2022-09-14T00:09:50;2.67;;;2.43;;
3911;SDS011;1971;51.778;10.330;2022-09-14T00:12:21;3.37;;;3.07;;
3911;SDS011;1971;51.778;10.330;2022-09-14T00:14:51;4.20;;;3.03;;
3911;SDS011;1971;51.778;10.330;2022-09-14T00:17:23;5.60;;;3.50;;
3911;SDS011;1971;51.778;10.330;2022-09-14T00:19:53;9.23;;;4.23;;
3911;SDS011;1971;51.778;10.330;2022-09-14T00:22:23;3.97;;;3.03;;
3911;SDS011;1971;51.778;10.330;2022-09-14T00:24:53;6.17;;;3.00;;
3911;SDS011;1971;51.778;10.330;2022-09-14T00:27:23;4.10;;;2.73;;
3911;SDS011;1971;51.778;10.330;2022-09-14T00:29:53;4.60;;;3.07;;
3911;SDS011;1971;51.778;10.330;2022-09-14T00:32:26;6.53;;;3.20;;
3911;SDS011;1971;51.778;10.330;2022-09-14T00:34:56;3.97;;;3.57;;
3911;SDS011;1971;51.778;10.330;2022-09-14T00:37:26;4.73;;;3.23;;
3911;SDS011;1971;51.778;10.330;2022-09-14T00:39:56;4.30;;;3.03;;
3911;SDS011;1971;51.778;10.330;2022-09-14T00:42:26;6.40;;;3.53;;
3911;SDS011;1971;51.778;10.330;2022-09-14T00:44:58;3.60;;;3.07;;
3911;SDS011;1971;51.778;10.330;2022-09-14T00:47:34;4.70;;;2.80;;
3911;SDS011;1971;51.778;10.330;2022-09-14T00:50:04;4.70;;;2.83;;
3911;SDS011;1971;51.778;10.330;2022-09-14T00:52:36;5.43;;;2.93;;
3911;SDS011;1971;51.778;10.330;2022-09-14T00:55:09;2.70;;;2.30;;
3911;SDS011;1971;51.778;10.330;2022-09-14T00:57:42;4.17;;;3.17;;
3911;SDS011;1971;51.778;10.330;2022-09-14T01:00:16;4.83;;;3.33;;
3911;SDS011;1971;51.778;10.330;2022-09-14T01:02:59;7.30;;;3.30;;
3911;SDS011;1971;51.778;10.330;2022-09-14T01:05:31;2.90;;;2.57;;
3911;SDS011;1971;51.778;10.330;2022-09-14T01:08:16;8.80;;;3.63;;
3911;SDS011;1971;51.778;10.330;2022-09-14T01:11:19;6.27;;;3.67;;
3911;SDS011;1971;51.778;10.330;2022-09-14T01:14:02;5.20;;;3.33;;
3911;SDS011;1971;51.778;10.330;2022-09-14T01:16:40;3.60;;;3.30;;
3911;SDS011;1971;51.778;10.330;2022-09-14T01:19:22;30.03;;;3.67;;
3911;SDS011;1971;51.778;10.330;2022-09-14T01:21:59;5.50;;;3.60;;
3911;SDS011;1971;51.778;10.330;2022-09-14T01:24:39;5.33;;;3.77;;
3911;SDS011;1971;51.778;10.330;2022-09-14T01:27:26;4.13;;;3.10;;
3911;SDS011;1971;51.778;10.330;2022-09-14T01:30:04;5.47;;;3.47;;
3911;SDS011;1971;51.778;10.330;2022-09-14T01:32:38;7.03;;;3.87;;
3911;SDS011;1971;51.778;10.330;2022-09-14T01:35:17;5.20;;;3.33;;
3911;SDS011;1971;51.778;10.330;2022-09-14T01:37:52;4.63;;;3.27;;
3911;SDS011;1971;51.778;10.330;2022-09-14T01:40:28;3.53;;;3.23;;
3911;SDS011;1971;51.778;10.330;2022-09-14T01:43:06;3.53;;;2.97;;
3911;SDS011;1971;51.778;10.330;2022-09-14T01:45:41;10.70;;;3.50;;
3911;SDS011;1971;51.778;10.330;2022-09-14T01:48:15;4.93;;;3.03;;
3911;SDS011;1971;51.778;10.330;2022-09-14T01:53:45;6.03;;;3.00;;
3911;SDS011;1971;51.778;10.330;2022-09-14T01:56:20;3.67;;;3.33;;
3911;SDS011;1971;51.778;10.330;2022-09-14T01:58:55;7.93;;;3.10;;
3911;SDS011;1971;51.778;10.330;2022-09-14T02:01:32;3.43;;;3.00;;
3911;SDS011;1971;51.778;10.330;2022-09-14T02:04:07;6.60;;;3.37;;
3911;SDS011;1971;51.778;10.330;2022-09-14T02:06:43;4.20;;;3.13;;
3911;SDS011;1971;51.778;10.330;2022-09-14T02:09:17;4.60;;;3.17;;
3911;SDS011;1971;51.778;10.330;2022-09-14T02:11:52;5.10;;;2.97;;
3911;SDS011;1971;51.778;10.330;2022-09-14T02:14:28;4.97;;;3.40;;
3911;SDS011;1971;51.778;10.330;2022-09-14T02:17:00;4.50;;;3.37;;
3911;SDS011;1971;51.778;10.330;2022-09-14T02:19:31;3.67;;;3.07;;
3911;SDS011;1971;51.778;10.330;2022-09-14T02:22:06;4.53;;;3.27;;
3911;SDS011;1971;51.778;10.330;2022-09-14T02:24:37;7.50;;;2.90;;
3911;SDS011;1971;51.778;10.330;2022-09-14T02:27:08;5.40;;;2.73;;
3911;SDS011;1971;51.778;10.330;2022-09-14T02:29:41;3.93;;;2.20;;
3911;SDS011;1971;51.778;10.330;2022-09-14T02:32:14;2.93;;;2.63;;
3911;SDS011;1971;51.778;10.330;2022-09-14T02:34:52;5.00;;;3.00;;
3911;SDS011;1971;51.778;10.330;2022-09-14T02:37:34;2.67;;;2.43;;
3911;SDS011;1971;51.778;10.330;2022-09-14T02:40:11;5.77;;;2.87;;
3911;SDS011;1971;51.778;10.330;2022-09-14T02:42:48;6.10;;;2.87;;
3911;SDS011;1971;51.778;10.330;2022-09-14T02:45:31;4.53;;;3.20;;
3911;SDS011;1971;51.778;10.330;2022-09-14T02:48:10;6.93;;;3.20;;
3911;SDS011;1971;51.778;10.330;2022-09-14T02:50:47;2.87;;;2.50;;
3911;SDS011;1971;51.778;10.330;2022-09-14T02:53:23;4.70;;;3.00;;
3911;SDS011;1971;51.778;10.330;2022-09-14T02:55:57;5.33;;;2.97;;
3911;SDS011;1971;51.778;10.330;2022-09-14T02:58:33;7.13;;;3.30;;
3911;SDS011;1971;51.778;10.330;2022-09-14T03:01:08;5.63;;;3.10;;
3911;SDS011;1971;51.778;10.330;2022-09-14T03:03:39;4.20;;;3.03;;
3911;SDS011;1971;51.778;10.330;2022-09-14T03:06:10;6.10;;;3.30;;
3911;SDS011;1971;51.778;10.330;2022-09-14T03:08:43;5.63;;;2.77;;
3911;SDS011;1971;51.778;10.330;2022-09-14T03:11:13;3.60;;;2.37;;
3911;SDS011;1971;51.778;10.330;2022-09-14T03:13:43;6.03;;;3.27;;
3911;SDS011;1971;51.778;10.330;2022-09-14T03:16:17;7.63;;;2.63;;
3911;SDS011;1971;51.778;10.330;2022-09-14T03:18:48;4.87;;;2.77;;
3911;SDS011;1971;51.778;10.330;2022-09-14T03:21:19;7.67;;;3.37;;
3911;SDS011;1971;51.778;10.330;2022-09-14T03:23:50;3.03;;;2.13;;
3911;SDS011;1971;51.778;10.330;2022-09-14T03:26:21;2.93;;;2.10;;
3911;SDS011;1971;51.778;10.330;2022-09-14T03:28:53;5.87;;;2.90;;
3911;SDS011;1971;51.778;10.330;2022-09-14T03:31:27;4.20;;;2.43;;
3911;SDS011;1971;51.778;10.330;2022-09-14T03:33:59;3.50;;;2.60;;
3911;SDS011;1971;51.778;10.330;2022-09-14T03:36:30;6.10;;;3.00;;
3911;SDS011;1971;51.778;10.330;2022-09-14T03:39:00;5.10;;;2.60;;
3911;SDS011;1971;51.778;10.330;2022-09-14T03:41:33;2.93;;;2.50;;
3911;SDS011;1971;51.778;10.330;2022-09-14T03:44:03;4.10;;;2.87;;
3911;SDS011;1971;51.778;10.330;2022-09-14T03:46:36;2.37;;;2.17;;
3911;SDS011;1971;51.778;10.330;2022-09-14T03:49:06;2.57;;;2.37;;
3911;SDS011;1971;51.778;10.330;2022-09-14T03:51:37;2.70;;;2.17;;
3911;SDS011;1971;51.778;10.330;2022-09-14T03:54:06;7.97;;;3.00;;
3911;SDS011;1971;51.778;10.330;2022-09-14T03:56:37;4.43;;;2.50;;
3911;SDS011;1971;51.778;10.330;2022-09-14T03:59:07;3.10;;;2.63;;
3911;SDS011;1971;51.778;10.330;2022-09-14T04:01:40;3.13;;;2.83;;
3911;SDS011;1971;51.778;10.330;2022-09-14T04:04:10;2.70;;;2.50;;
3911;SDS011;1971;51.778;10.330;2022-09-14T04:06:41;3.53;;;2.93;;
3911;SDS011;1971;51.778;10.330;2022-09-14T04:09:10;4.83;;;2.50;;
3911;SDS011;1971;51.778;10.330;2022-09-14T04:11:40;5.80;;;3.23;;
3911;SDS011;1971;51.778;10.330;2022-09-14T04:14:11;3.87;;;2.57;;
3911;SDS011;1971;51.778;10.330;2022-09-14T04:16:45;3.63;;;2.63;;
3911;SDS011;1971;51.778;10.330;2022-09-14T04:19:14;4.43;;;3.27;;
3911;SDS011;1971;51.778;10.330;2022-09-14T04:21:45;2.93;;;2.73;;
3911;SDS011;1971;51.778;10.330;2022-09-14T04:24:15;7.23;;;2.90;;
3911;SDS011;1971;51.778;10.330;2022-09-14T04:26:46;3.13;;;2.50;;
3911;SDS011;1971;51.778;10.330;2022-09-14T04:29:16;3.33;;;2.63;;
3911;SDS011;1971;51.778;10.330;2022-09-14T04:31:49;4.40;;;3.10;;
3911;SDS011;1971;51.778;10.330;2022-09-14T04:34:19;6.10;;;3.40;;
3911;SDS011;1971;51.778;10.330;2022-09-14T04:36:49;5.47;;;2.90;;
3911;SDS011;1971;51.778;10.330;2022-09-14T04:39:20;9.23;;;4.40;;
3911;SDS011;1971;51.778;10.330;2022-09-14T04:41:50;7.53;;;3.83;;
3911;SDS011;1971;51.778;10.330;2022-09-14T04:44:20;4.33;;;3.30;;
3911;SDS011;1971;51.778;10.330;2022-09-14T04:46:53;12.70;;;3.40;;
3911;SDS011;1971;51.778;10.330;2022-09-14T04:49:23;5.20;;;3.87;;
3911;SDS011;1971;51.778;10.330;2022-09-14T04:51:53;5.03;;;3.47;;
3911;SDS011;1971;51.778;10.330;2022-09-14T04:54:23;6.30;;;3.40;;
3911;SDS011;1971;51.778;10.330;2022-09-14T04:56:53;7.80;;;3.70;;
3911;SDS011;1971;51.778;10.330;2022-09-14T04:59:23;3.97;;;3.53;;
3911;SDS011;1971;51.778;10.330;2022-09-14T05:01:56;5.70;;;2.77;;
3911;SDS011;1971;51.778;10.330;2022-09-14T05:04:27;3.37;;;2.67;;
3911;SDS011;1971;51.778;10.330;2022-09-14T05:06:56;3.90;;;3.10;;
3911;SDS011;1971;51.778;10.330;2022-09-14T05:09:27;4.23;;;2.57;;
3911;SDS011;1971;51.778;10.330;2022-09-14T05:11:56;8.53;;;2.57;;
3911;SDS011;1971;51.778;10.330;2022-09-14T05:14:27;3.33;;;2.23;;
3911;SDS011;1971;51.778;10.330;2022-09-14T05:16:59;5.63;;;2.40;;
3911;SDS011;1971;51.778;10.330;2022-09-14T05:19:30;6.00;;;2.67;;
3911;SDS011;1971;51.778;10.330;2022-09-14T05:22:00;5.10;;;3.00;;
3911;SDS011;1971;51.778;10.330;2022-09-14T05:24:30;4.60;;;2.30;;
3911;SDS011;1971;51.778;10.330;2022-09-14T05:27:01;3.60;;;1.90;;
3911;SDS011;1971;51.778;10.330;2022-09-14T05:29:31;7.53;;;6.83;;
3911;SDS011;1971;51.778;10.330;2022-09-14T05:32:04;3.70;;;2.40;;
3911;SDS011;1971;51.778;10.330;2022-09-14T05:34:34;8.23;;;2.33;;
3911;SDS011;1971;51.778;10.330;2022-09-14T05:37:05;6.07;;;2.00;;
3911;SDS011;1971;51.778;10.330;2022-09-14T05:39:35;2.57;;;1.77;;
3911;SDS011;1971;51.778;10.330;2022-09-14T05:42:05;6.77;;;2.00;;
3911;SDS011;1971;51.778;10.330;2022-09-14T05:44:35;4.37;;;1.80;;
3911;SDS011;1971;51.778;10.330;2022-09-14T05:47:08;3.80;;;2.53;;
3911;SDS011;1971;51.778;10.330;2022-09-14T05:49:39;3.07;;;2.00;;
3911;SDS011;1971;51.778;10.330;2022-09-14T05:52:09;2.10;;;1.90;;
3911;SDS011;1971;51.778;10.330;2022-09-14T05:54:39;4.23;;;1.90;;
3911;SDS011;1971;51.778;10.330;2022-09-14T05:57:09;4.40;;;2.07;;
3911;SDS011;1971;51.778;10.330;2022-09-14T05:59:39;3.90;;;1.90;;
3911;SDS011;1971;51.778;10.330;2022-09-14T06:02:12;3.63;;;2.40;;
3911;SDS011;1971;51.778;10.330;2022-09-14T06:04:44;3.23;;;2.23;;
3911;SDS011;1971;51.778;10.330;2022-09-14T06:07:15;2.97;;;1.60;;
3911;SDS011;1971;51.778;10.330;2022-09-14T06:09:45;6.17;;;2.30;;
3911;SDS011;1971;51.778;10.330;2022-09-14T06:12:17;7.67;;;2.40;;
3911;SDS011;1971;51.778;10.330;2022-09-14T06:14:48;3.00;;;1.60;;
3911;SDS011;1971;51.778;10.330;2022-09-14T06:17:20;2.10;;;1.53;;
3911;SDS011;1971;51.778;10.330;2022-09-14T06:19:51;3.60;;;1.87;;
3911;SDS011;1971;51.778;10.330;2022-09-14T06:22:20;3.10;;;1.70;;
3911;SDS011;1971;51.778;10.330;2022-09-14T06:24:51;8.50;;;2.80;;
3911;SDS011;1971;51.778;10.330;2022-09-14T06:27:20;2.40;;;1.43;;
3911;SDS011;1971;51.778;10.330;2022-09-14T06:29:51;6.60;;;1.47;;
3911;SDS011;1971;51.778;10.330;2022-09-14T06:32:28;2.23;;;1.80;;
3911;SDS011;1971;51.778;10.330;2022-09-14T06:34:59;2.97;;;1.80;;
3911;SDS011;1971;51.778;10.330;2022-09-14T06:37:31;2.60;;;1.70;;
3911;SDS011;1971;51.778;10.330;2022-09-14T06:40:02;3.03;;;1.90;;
3911;SDS011;1971;51.778;10.330;2022-09-14T06:42:33;7.13;;;2.33;;
3911;SDS011;1971;51.778;10.330;2022-09-14T06:45:03;3.03;;;1.90;;
3911;SDS011;1971;51.778;10.330;2022-09-14T06:47:37;2.47;;;1.53;;
3911;SDS011;1971;51.778;10.330;2022-09-14T06:50:07;4.50;;;1.70;;
3911;SDS011;1971;51.778;10.330;2022-09-14T06:52:38;3.17;;;1.30;;
3911;SDS011;1971;51.778;10.330;2022-09-14T06:55:08;2.10;;;1.23;;
3911;SDS011;1971;51.778;10.330;2022-09-14T06:57:38;3.53;;;1.40;;
3911;SDS011;1971;51.778;10.330;2022-09-14T07:00:09;2.93;;;1.70;;
3911;SDS011;1971;51.778;10.330;2022-09-14T07:02:42;4.23;;;1.60;;
3911;SDS011;1971;51.778;10.330;2022-09-14T07:05:15;4.93;;;1.30;;
3911;SDS011;1971;51.778;10.330;2022-09-14T07:07:49;6.50;;;1.93;;
3911;SDS011;1971;51.778;10.330;2022-09-14T07:10:19;4.80;;;1.63;;
3911;SDS011;1971;51.778;10.330;2022-09-14T07:12:57;3.03;;;1.20;;
3911;SDS011;1971;51.778;10.330;2022-09-14T07:15:27;3.20;;;1.23;;
3911;SDS011;1971;51.778;10.330;2022-09-14T07:18:00;5.23;;;1.17;;
3911;SDS011;1971;51.778;10.330;2022-09-14T07:20:30;3.80;;;1.40;;
3911;SDS011;1971;51.778;10.330;2022-09-14T07:23:02;5.00;;;1.70;;
3911;SDS011;1971;51.778;10.330;2022-09-14T07:25:32;5.03;;;1.40;;
3911;SDS011;1971;51.778;10.330;2022-09-14T07:28:02;2.73;;;1.30;;
3911;SDS011;1971;51.778;10.330;2022-09-14T07:30:33;4.43;;;1.00;;
3911;SDS011;1971;51.778;10.330;2022-09-14T07:33:06;1.87;;;1.03;;
3911;SDS011;1971;51.778;10.330;2022-09-14T07:35:36;3.23;;;1.57;;
3911;SDS011;1971;51.778;10.330;2022-09-14T07:38:06;4.53;;;1.67;;
3911;SDS011;1971;51.778;10.330;2022-09-14T07:40:36;2.73;;;1.47;;
3911;SDS011;1971;51.778;10.330;2022-09-14T07:43:06;6.33;;;1.57;;
3911;SDS011;1971;51.778;10.330;2022-09-14T07:45:38;2.27;;;1.33;;
3911;SDS011;1971;51.778;10.330;2022-09-14T07:48:10;5.30;;;2.20;;
3911;SDS011;1971;51.778;10.330;2022-09-14T07:50:40;1.80;;;1.30;;
3911;SDS011;1971;51.778;10.330;2022-09-14T07:53:10;2.37;;;1.30;;
3911;SDS011;1971;51.778;10.330;2022-09-14T07:55:40;3.07;;;1.37;;
3911;SDS011;1971;51.778;10.330;2022-09-14T07:58:10;2.97;;;1.30;;
3911;SDS011;1971;51.778;10.330;2022-09-14T08:00:40;5.30;;;1.30;;
3911;SDS011;1971;51.778;10.330;2022-09-14T08:03:13;4.70;;;1.70;;
3911;SDS011;1971;51.778;10.330;2022-09-14T08:05:44;3.90;;;1.53;;
3911;SDS011;1971;51.778;10.330;2022-09-14T08:08:14;6.60;;;2.30;;
3911;SDS011;1971;51.778;10.330;2022-09-14T08:10:44;5.57;;;1.57;;
3911;SDS011;1971;51.778;10.330;2022-09-14T08:13:14;2.97;;;1.50;;
3911;SDS011;1971;51.778;10.330;2022-09-14T08:15:44;3.80;;;1.60;;
3911;SDS011;1971;51.778;10.330;2022-09-14T08:18:17;2.93;;;1.70;;
3911;SDS011;1971;51.778;10.330;2022-09-14T08:20:47;3.73;;;1.50;;
3911;SDS011;1971;51.778;10.330;2022-09-14T08:23:16;3.60;;;1.40;;
3911;SDS011;1971;51.778;10.330;2022-09-14T08:25:47;2.60;;;2.27;;
3911;SDS011;1971;51.778;10.330;2022-09-14T08:28:18;3.93;;;2.10;;
3911;SDS011;1971;51.778;10.330;2022-09-14T08:30:48;2.10;;;1.80;;
3911;SDS011;1971;51.778;10.330;2022-09-14T08:33:20;4.23;;;2.33;;
3911;SDS011;1971;51.778;10.330;2022-09-14T08:35:50;5.83;;;2.40;;
3911;SDS011;1971;51.778;10.330;2022-09-14T08:38:23;3.13;;;1.90;;
3911;SDS011;1971;51.778;10.330;2022-09-14T08:40:54;2.63;;;1.87;;
3911;SDS011;1971;51.778;10.330;2022-09-14T08:43:25;4.10;;;2.40;;
3911;SDS011;1971;51.778;10.330;2022-09-14T08:45:59;4.57;;;2.17;;
3911;SDS011;1971;51.778;10.330;2022-09-14T08:48:35;6.47;;;2.20;;
3911;SDS011;1971;51.778;10.330;2022-09-14T08:51:08;10.87;;;1.97;;
3911;SDS011;1971;51.778;10.330;2022-09-14T08:53:39;1.90;;;1.80;;
3911;SDS011;1971;51.778;10.330;2022-09-14T08:56:12;3.10;;;1.73;;
3911;SDS011;1971;51.778;10.330;2022-09-14T08:58:48;2.47;;;1.97;;
3911;SDS011;1971;51.778;10.330;2022-09-14T09:01:29;4.93;;;2.67;;
3911;SDS011;1971;51.778;10.330;2022-09-14T09:04:18;3.00;;;1.93;;
3911;SDS011;1971;51.778;10.330;2022-09-14T09:06:57;9.10;;;2.47;;
3911;SDS011;1971;51.778;10.330;2022-09-14T09:09:34;2.90;;;2.37;;
3911;SDS011;1971;51.778;10.330;2022-09-14T09:12:11;6.03;;;2.60;;
3911;SDS011;1971;51.778;10.330;2022-09-14T09:14:46;3.30;;;2.70;;
3911;SDS011;1971;51.778;10.330;2022-09-14T09:17:20;2.23;;;1.87;;
3911;SDS011;1971;51.778;10.330;2022-09-14T09:20:00;4.80;;;2.10;;
3911;SDS011;1971;51.778;10.330;2022-09-14T09:22:35;3.80;;;2.40;;
3911;SDS011;1971;51.778;10.330;2022-09-14T09:25:10;5.87;;;2.93;;
3911;SDS011;1971;51.778;10.330;2022-09-14T09:27:44;4.10;;;2.60;;
3911;SDS011;1971;51.778;10.330;2022-09-14T09:30:15;6.37;;;2.67;;
3911;SDS011;1971;51.778;10.330;2022-09-14T09:32:45;4.83;;;2.80;;
3911;SDS011;1971;51.778;10.330;2022-09-14T09:35:44;3.73;;;2.10;;
3911;SDS011;1971;51.778;10.330;2022-09-14T09:38:20;2.93;;;2.73;;
3911;SDS011;1971;51.778;10.330;2022-09-14T09:40:52;2.67;;;2.47;;
3911;SDS011;1971;51.778;10.330;2022-09-14T09:43:25;4.27;;;3.00;;
3911;SDS011;1971;51.778;10.330;2022-09-14T09:46:14;4.77;;;2.57;;
3911;SDS011;1971;51.778;10.330;2022-09-14T09:48:45;2.43;;;2.23;;
3911;SDS011;1971;51.778;10.330;2022-09-14T09:51:25;4.97;;;2.27;;
3911;SDS011;1971;51.778;10.330;2022-09-14T09:53:59;5.97;;;2.63;;
3911;SDS011;1971;51.778;10.330;2022-09-14T09:56:35;2.47;;;1.93;;
3911;SDS011;1971;51.778;10.330;2022-09-14T09:59:20;2.10;;;1.97;;
3911;SDS011;1971;51.778;10.330;2022-09-14T10:01:53;8.90;;;2.23;;
3911;SDS011;1971;51.778;10.330;2022-09-14T10:04:26;2.67;;;1.80;;
3911;SDS011;1971;51.778;10.330;2022-09-14T10:07:00;5.03;;;1.90;;
3911;SDS011;1971;51.778;10.330;2022-09-14T10:09:31;9.63;;;2.03;;
3911;SDS011;1971;51.778;10.330;2022-09-14T10:12:03;3.60;;;1.60;;
3911;SDS011;1971;51.778;10.330;2022-09-14T10:14:34;5.03;;;2.57;;
3911;SDS011;1971;51.778;10.330;2022-09-14T10:17:13;5.80;;;1.80;;
3911;SDS011;1971;51.778;10.330;2022-09-14T10:19:46;4.40;;;2.13;;
3911;SDS011;1971;51.778;10.330;2022-09-14T10:22:24;6.80;;;2.60;;
3911;SDS011;1971;51.778;10.330;2022-09-14T10:24:56;3.60;;;1.83;;
3911;SDS011;1971;51.778;10.330;2022-09-14T10:27:35;7.97;;;2.07;;
3911;SDS011;1971;51.778;10.330;2022-09-14T10:30:10;4.60;;;1.80;;
3911;SDS011;1971;51.778;10.330;2022-09-14T10:32:44;3.50;;;1.80;;
3911;SDS011;1971;51.778;10.330;2022-09-14T10:35:18;3.57;;;3.07;;
3911;SDS011;1971;51.778;10.330;2022-09-14T10:37:58;3.30;;;3.00;;
3911;SDS011;1971;51.778;10.330;2022-09-14T10:40:36;3.23;;;2.23;;
3911;SDS011;1971;51.778;10.330;2022-09-14T10:43:13;6.27;;;1.90;;
3911;SDS011;1971;51.778;10.330;2022-09-14T10:45:47;4.00;;;2.23;;
3911;SDS011;1971;51.778;10.330;2022-09-14T10:51:22;2.50;;;1.70;;
3911;SDS011;1971;51.778;10.330;2022-09-14T10:54:03;3.30;;;2.10;;
3911;SDS011;1971;51.778;10.330;2022-09-14T10:56:45;6.43;;;2.40;;
3911;SDS011;1971;51.778;10.330;2022-09-14T10:59:31;2.30;;;2.10;;
3911;SDS011;1971;51.778;10.330;2022-09-14T11:02:24;4.27;;;2.20;;
3911;SDS011;1971;51.778;10.330;2022-09-14T11:05:11;4.57;;;3.00;;
3911;SDS011;1971;51.778;10.330;2022-09-14T11:07:50;3.23;;;2.90;;
3911;SDS011;1971;51.778;10.330;2022-09-14T11:10:31;5.10;;;2.87;;
3911;SDS011;1971;51.778;10.330;2022-09-14T11:16:06;5.67;;;2.87;;
3911;SDS011;1971;51.778;10.330;2022-09-14T11:18:48;7.87;;;3.20;;
3911;SDS011;1971;51.778;10.330;2022-09-14T11:21:28;4.00;;;2.80;;
3911;SDS011;1971;51.778;10.330;2022-09-14T11:24:11;3.77;;;3.07;;
3911;SDS011;1971;51.778;10.330;2022-09-14T11:26:49;2.80;;;2.60;;
3911;SDS011;1971;51.778;10.330;2022-09-14T11:29:29;3.33;;;3.03;;
3911;SDS011;1971;51.778;10.330;2022-09-14T11:32:03;3.40;;;3.10;;
3911;SDS011;1971;51.778;10.330;2022-09-14T11:34:55;4.73;;;3.43;;
3911;SDS011;1971;51.778;10.330;2022-09-14T11:37:31;5.07;;;3.27;;
3911;SDS011;1971;51.778;10.330;2022-09-14T11:40:07;5.77;;;3.67;;
3911;SDS011;1971;51.778;10.330;2022-09-14T11:42:51;3.60;;;3.03;;
3911;SDS011;1971;51.778;10.330;2022-09-14T11:45:28;6.63;;;3.40;;
3911;SDS011;1971;51.778;10.330;2022-09-14T11:48:03;3.70;;;3.07;;
3911;SDS011;1971;51.778;10.330;2022-09-14T11:51:00;4.57;;;3.40;;
3911;SDS011;1971;51.778;10.330;2022-09-14T11:53:34;8.10;;;3.57;;
3911;SDS011;1971;51.778;10.330;2022-09-14T11:56:05;4.17;;;3.70;;
3911;SDS011;1971;51.778;10.330;2022-09-14T11:58:54;5.37;;;4.20;;
3911;SDS011;1971;51.778;10.330;2022-09-14T12:01:28;4.93;;;3.33;;
3911;SDS011;1971;51.778;10.330;2022-09-14T12:04:05;4.73;;;3.90;;
3911;SDS011;1971;51.778;10.330;2022-09-14T12:06:51;3.53;;;3.00;;
3911;SDS011;1971;51.778;10.330;2022-09-14T12:12:35;7.57;;;4.17;;
3911;SDS011;1971;51.778;10.330;2022-09-14T12:15:21;4.60;;;3.73;;
3911;SDS011;1971;51.778;10.330;2022-09-14T12:18:18;5.27;;;3.43;;
3911;SDS011;1971;51.778;10.330;2022-09-14T12:21:00;4.87;;;3.73;;
3911;SDS011;1971;51.778;10.330;2022-09-14T12:23:42;5.00;;;3.73;;
3911;SDS011;1971;51.778;10.330;2022-09-14T12:32:04;6.33;;;3.90;;
3911;SDS011;1971;51.778;10.330;2022-09-14T12:34:58;6.47;;;4.00;;
3911;SDS011;1971;51.778;10.330;2022-09-14T12:44:28;5.30;;;4.10;;
3911;SDS011;1971;51.778;10.330;2022-09-14T12:50:18;4.00;;;3.60;;
3911;SDS011;1971;51.778;10.330;2022-09-14T12:52:56;5.83;;;3.70;;
3911;SDS011;1971;51.778;10.330;2022-09-14T12:55:55;6.00;;;4.37;;
3911;SDS011;1971;51.778;10.330;2022-09-14T13:01:28;3.50;;;2.40;;
3911;SDS011;1971;51.778;10.330;2022-09-14T13:04:10;5.27;;;2.80;;
3911;SDS011;1971;51.778;10.330;2022-09-14T13:06:43;3.13;;;2.83;;
3911;SDS011;1971;51.778;10.330;2022-09-14T13:09:17;3.57;;;2.50;;
3911;SDS011;1971;51.778;10.330;2022-09-14T13:11:52;4.60;;;2.20;;
3911;SDS011;1971;51.778;10.330;2022-09-14T13:14:24;2.40;;;2.20;;
3911;SDS011;1971;51.778;10.330;2022-09-14T13:16:58;4.93;;;2.33;;
3911;SDS011;1971;51.778;10.330;2022-09-14T13:19:33;3.03;;;2.47;;
3911;SDS011;1971;51.778;10.330;2022-09-14T13:22:03;5.00;;;2.30;;
3911;SDS011;1971;51.778;10.330;2022-09-14T13:24:46;4.97;;;2.53;;
3911;SDS011;1971;51.778;10.330;2022-09-14T13:27:20;6.40;;;3.00;;
3911;SDS011;1971;51.778;10.330;2022-09-14T13:29:57;3.60;;;2.80;;
3911;SDS011;1971;51.778;10.330;2022-09-14T13:32:30;9.63;;;3.60;;
3911;SDS011;1971;51.778;10.330;2022-09-14T13:35:13;6.50;;;3.30;;
3911;SDS011;1971;51.778;10.330;2022-09-14T13:37:46;4.80;;;2.60;;
3911;SDS011;1971;51.778;10.330;2022-09-14T13:40:20;4.50;;;2.97;;
3911;SDS011;1971;51.778;10.330;2022-09-14T13:42:53;6.30;;;3.47;;
3911;SDS011;1971;51.778;10.330;2022-09-14T13:45:24;6.33;;;3.17;;
3911;SDS011;1971;51.778;10.330;2022-09-14T13:47:55;9.00;;;3.30;;
3911;SDS011;1971;51.778;10.330;2022-09-14T13:50:27;7.37;;;4.03;;
3911;SDS011;1971;51.778;10.330;2022-09-14T13:52:58;6.27;;;3.97;;
3911;SDS011;1971;51.778;10.330;2022-09-14T13:55:40;8.40;;;3.47;;
3911;SDS011;1971;51.778;10.330;2022-09-14T13:58:13;4.30;;;3.20;;
3911;SDS011;1971;51.778;10.330;2022-09-14T14:00:50;3.03;;;2.67;;
3911;SDS011;1971;51.778;10.330;2022-09-14T14:03:30;4.07;;;3.13;;
3911;SDS011;1971;51.778;10.330;2022-09-14T14:06:14;4.80;;;3.30;;
3911;SDS011;1971;51.778;10.330;2022-09-14T14:08:53;3.63;;;2.80;;
3911;SDS011;1971;51.778;10.330;2022-09-14T14:11:35;5.23;;;3.20;;
3911;SDS011;1971;51.778;10.330;2022-09-14T14:14:17;10.10;;;3.43;;
3911;SDS011;1971;51.778;10.330;2022-09-14T14:17:09;8.20;;;3.93;;
3911;SDS011;1971;51.778;10.330;2022-09-14T14:19:51;3.77;;;2.97;;
3911;SDS011;1971;51.778;10.330;2022-09-14T14:22:26;6.93;;;3.43;;
3911;SDS011;1971;51.778;10.330;2022-09-14T14:24:59;4.37;;;3.17;;
3911;SDS011;1971;51.778;10.330;2022-09-14T14:27:46;6.00;;;4.17;;
3911;SDS011;1971;51.778;10.330;2022-09-14T14:30:17;6.77;;;4.00;;
3911;SDS011;1971;51.778;10.330;2022-09-14T14:32:49;4.80;;;3.73;;
3911;SDS011;1971;51.778;10.330;2022-09-14T14:35:21;5.60;;;3.40;;
3911;SDS011;1971;51.778;10.330;2022-09-14T14:37:55;7.17;;;4.30;;
3911;SDS011;1971;51.778;10.330;2022-09-14T14:40:26;6.17;;;4.20;;
3911;SDS011;1971;51.778;10.330;2022-09-14T14:42:58;6.70;;;5.13;;
3911;SDS011;1971;51.778;10.330;2022-09-14T14:45:30;4.03;;;3.30;;
3911;SDS011;1971;51.778;10.330;2022-09-14T14:48:02;4.93;;;4.10;;
3911;SDS011;1971;51.778;10.330;2022-09-14T14:50:32;8.97;;;4.27;;
3911;SDS011;1971;51.778;10.330;2022-09-14T14:53:05;6.60;;;4.77;;
3911;SDS011;1971;51.778;10.330;2022-09-14T14:55:35;10.70;;;5.30;;
3911;SDS011;1971;51.778;10.330;2022-09-14T14:58:07;5.60;;;4.13;;
3911;SDS011;1971;51.778;10.330;2022-09-14T15:00:44;5.97;;;4.57;;
3911;SDS011;1971;51.778;10.330;2022-09-14T15:03:15;4.77;;;4.27;;
3911;SDS011;1971;51.778;10.330;2022-09-14T15:05:46;6.10;;;4.47;;
3911;SDS011;1971;51.778;10.330;2022-09-14T15:08:20;6.13;;;4.07;;
3911;SDS011;1971;51.778;10.330;2022-09-14T15:10:53;7.73;;;4.90;;
3911;SDS011;1971;51.778;10.330;2022-09-14T15:13:24;6.80;;;4.60;;
3911;SDS011;1971;51.778;10.330;2022-09-14T15:15:55;14.47;;;11.00;;
3911;SDS011;1971;51.778;10.330;2022-09-14T15:18:26;4.57;;;4.10;;
3911;SDS011;1971;51.778;10.330;2022-09-14T15:20:55;12.53;;;4.67;;
3911;SDS011;1971;51.778;10.330;2022-09-14T15:23:28;11.23;;;5.10;;
3911;SDS011;1971;51.778;10.330;2022-09-14T15:25:58;4.37;;;3.90;;
3911;SDS011;1971;51.778;10.330;2022-09-14T15:28:29;4.87;;;4.37;;
3911;SDS011;1971;51.778;10.330;2022-09-14T15:31:02;7.43;;;5.00;;
3911;SDS011;1971;51.778;10.330;2022-09-14T15:33:33;7.33;;;4.57;;
3911;SDS011;1971;51.778;10.330;2022-09-14T15:36:03;7.37;;;5.20;;
3911;SDS011;1971;51.778;10.330;2022-09-14T15:38:36;7.80;;;5.93;;
3911;SDS011;1971;51.778;10.330;2022-09-14T15:41:09;6.67;;;6.07;;
3911;SDS011;1971;51.778;10.330;2022-09-14T15:43:42;7.90;;;6.53;;
3911;SDS011;1971;51.778;10.330;2022-09-14T15:46:13;7.13;;;6.43;;
3911;SDS011;1971;51.778;10.330;2022-09-14T15:48:43;9.50;;;6.33;;
3911;SDS011;1971;51.778;10.330;2022-09-14T15:51:14;7.77;;;7.07;;
3911;SDS011;1971;51.778;10.330;2022-09-14T15:53:47;8.90;;;7.70;;
3911;SDS011;1971;51.778;10.330;2022-09-14T15:56:17;6.33;;;5.70;;
3911;SDS011;1971;51.778;10.330;2022-09-14T15:59:23;8.03;;;6.03;;
3911;SDS011;1971;51.778;10.330;2022-09-14T16:02:21;7.33;;;6.10;;
3911;SDS011;1971;51.778;10.330;2022-09-14T16:04:51;6.83;;;6.13;;
3911;SDS011;1971;51.778;10.330;2022-09-14T16:07:21;7.43;;;6.27;;
3911;SDS011;1971;51.778;10.330;2022-09-14T16:09:54;8.93;;;6.10;;
3911;SDS011;1971;51.778;10.330;2022-09-14T16:12:25;7.00;;;6.33;;
3911;SDS011;1971;51.778;10.330;2022-09-14T16:15:01;8.87;;;7.40;;